Time;durP1;ratioP1;P1;durP2;ratioP2;P2;SDS_P1;SDS_P2;PMS_P1;PMS_P2;Temp;Humidity;BMP_temperature;BMP_pressure;BME280_temperature;BME280_humidity;BME280_pressure;Samples;Min_cycle;Max_cycle;Signal;HPM_P1;HPM_P2
2023/12/21 00:02:25;;;;;;;4.82;2.88;;;;;;;;;;5050666;28;20029;-83
2023/12/21 00:04:51;;;;;;;8.30;2.63;;;;;;;;;;5050102;28;20062;-84
2023/12/21 00:07:17;;;;;;;1.70;1.30;;;;;;;;;;5050909;28;20032;-84
2023/12/21 00:09:43;;;;;;;2.90;1.95;;;;;;;;;;5050122;28;20017;-83
2023/12/21 00:12:08;;;;;;;10.02;1.67;;;4.80;99.90;;;;;;5042440;28;20025;-83
2023/12/21 00:14:34;;;;;;;5.22;1.92;;;;;;;;;;5048860;28;20403;-83
2023/12/21 00:17:00;;;;;;;5.72;2.08;;;;;;;;;;5050930;28;20040;-84
2023/12/21 00:19:26;;;;;;;13.10;1.98;;;;;;;;;;5049402;28;20044;-84
2023/12/21 00:21:53;;;;;;;5.65;2.80;;;4.90;99.90;;;;;;5051473;28;20021;-83
2023/12/21 00:24:18;;;;;;;5.53;1.80;;;4.90;99.90;;;;;;5050518;28;20025;-83
2023/12/21 00:26:44;;;;;;;1.67;1.45;;;;;;;;;;5051759;28;20474;-83
2023/12/21 00:29:10;;;;;;;4.30;1.67;;;;;;;;;;5050455;28;20524;-83
2023/12/21 00:31:36;;;;;;;2.53;1.92;;;;;;;;;;5050820;28;20037;-84
2023/12/21 00:34:02;;;;;;;3.78;2.20;;;;;;;;;;5030577;28;20537;-83
2023/12/21 00:36:28;;;;;;;4.40;1.50;;;;;;;;;;5044509;28;20079;-83
2023/12/21 00:38:54;;;;;;;5.72;1.70;;;;;;;;;;5051159;28;20577;-84
2023/12/21 00:41:20;;;;;;;4.50;1.75;;;;;;;;;;5044672;28;20028;-83
2023/12/21 00:43:46;;;;;;;1.63;1.52;;;;;;;;;;5037266;28;20059;-84
2023/12/21 00:46:12;;;;;;;2.72;1.73;;;;;;;;;;5050720;28;20053;-83
2023/12/21 00:48:38;;;;;;;7.40;1.83;;;;;;;;;;5050594;28;20088;-84
2023/12/21 00:51:05;;;;;;;1.58;1.45;;;;;;;;;;5050037;28;20052;-83
2023/12/21 00:53:30;;;;;;;3.25;1.55;;;5.10;99.90;;;;;;5050053;28;20505;-84
2023/12/21 00:55:56;;;;;;;11.50;1.45;;;;;;;;;;5050594;28;20095;-84
2023/12/21 00:58:22;;;;;;;1.58;1.25;;;;;;;;;;5050093;28;20079;-84
2023/12/21 01:00:48;;;;;;;2.58;1.80;;;;;;;;;;5050954;28;20039;-83
2023/12/21 01:03:14;;;;;;;1.35;1.23;;;;;;;;;;5048450;28;20024;-84
2023/12/21 01:05:40;;;;;;;9.15;1.55;;;5.20;99.90;;;;;;5038463;28;20067;-85
2023/12/21 01:08:07;;;;;;;2.00;1.52;;;;;;;;;;5049613;28;20025;-84
2023/12/21 01:10:33;;;;;;;10.05;2.33;;;;;;;;;;5047622;28;20131;-84
2023/12/21 01:12:59;;;;;;;2.97;1.75;;;;;;;;;;5037547;28;20025;-84
2023/12/21 01:15:26;;;;;;;2.13;1.92;;;;;;;;;;5050150;28;20453;-84
2023/12/21 01:17:52;;;;;;;0.95;0.95;;;;;;;;;;5045764;28;20030;-84
2023/12/21 01:20:18;;;;;;;1.42;1.05;;;;;;;;;;5044974;28;20033;-84
2023/12/21 01:22:44;;;;;;;1.98;1.42;;;;;;;;;;5050131;28;20025;-84
2023/12/21 01:25:10;;;;;;;1.85;0.80;;;;;;;;;;5032620;28;20047;-83
2023/12/21 01:27:36;;;;;;;10.30;1.90;;;;;;;;;;5034836;28;20031;-83
2023/12/21 01:30:02;;;;;;;1.98;1.00;;;;;;;;;;5030904;28;20572;-83
2023/12/21 01:32:28;;;;;;;3.13;1.40;;;;;;;;;;5039158;28;20148;-84
2023/12/21 01:34:53;;;;;;;7.57;1.98;;;5.30;99.90;;;;;;5041945;28;20025;-84
2023/12/21 01:37:19;;;;;;;4.88;1.80;;;;;;;;;;5044731;28;20025;-83
2023/12/21 01:39:45;;;;;;;1.48;1.08;;;;;;;;;;5041685;28;20029;-83
2023/12/21 01:42:11;;;;;;;1.60;1.02;;;;;;;;;;5037455;28;20441;-83
2023/12/21 01:44:37;;;;;;;1.25;0.98;;;;;;;;;;5050396;28;20049;-84
2023/12/21 01:47:04;;;;;;;2.63;1.75;;;;;;;;;;5039442;28;20517;-84
2023/12/21 01:49:30;;;;;;;1.20;1.10;;;;;;;;;;5043074;28;20035;-84
2023/12/21 01:51:57;;;;;;;1.67;1.42;;;;;;;;;;5049481;28;20063;-84
2023/12/21 01:54:23;;;;;;;3.78;1.30;;;;;;;;;;5049637;28;20041;-84
2023/12/21 01:56:49;;;;;;;2.30;1.52;;;;;;;;;;5035951;28;20146;-84
2023/12/21 01:59:15;;;;;;;3.10;1.15;;;;;;;;;;5037609;28;20490;-84
2023/12/21 02:01:41;;;;;;;2.80;1.55;;;;;;;;;;5042013;28;20014;-83
2023/12/21 02:04:07;;;;;;;2.80;1.15;;;;;;;;;;5030419;28;20041;-84
2023/12/21 02:06:33;;;;;;;4.97;1.10;;;5.60;99.90;;;;;;5029554;28;20041;-84
2023/12/21 02:08:59;;;;;;;2.17;1.30;;;;;;;;;;5029820;28;20080;-84
2023/12/21 02:11:25;;;;;;;4.18;2.20;;;;;;;;;;5029794;28;20439;-84
2023/12/21 02:13:51;;;;;;;1.27;1.02;;;;;;;;;;5042608;28;20029;-84
2023/12/21 02:16:27;;;;;;;2.45;1.95;;;5.50;99.90;;;;;;5030065;28;20026;-84
2023/12/21 02:18:54;;;;;;;4.25;1.90;;;;;;;;;;5029994;28;20394;-84
2023/12/21 02:21:21;;;;;;;6.18;1.17;;;5.40;99.90;;;;;;5039462;28;20044;-83
2023/12/21 02:23:50;;;;;;;6.53;1.42;;;5.40;99.90;;;;;;5049540;28;20028;-84
2023/12/21 02:26:18;;;;;;;5.95;1.23;;;;;;;;;;5049452;28;20028;-84
2023/12/21 02:28:44;;;;;;;3.90;1.38;;;;;;;;;;5047602;28;20021;-84
2023/12/21 02:31:10;;;;;;;9.68;2.20;;;;;;;;;;5038915;28;20037;-84
2023/12/21 02:33:36;;;;;;;2.13;1.40;;;;;;;;;;5034631;28;20037;-84
2023/12/21 02:36:03;;;;;;;4.63;1.88;;;;;;;;;;5049724;28;20110;-84
2023/12/21 02:38:29;;;;;;;4.90;1.90;;;;;;;;;;5046024;28;20032;-84
2023/12/21 02:40:55;;;;;;;2.25;1.20;;;;;;;;;;5029656;28;20042;-84
2023/12/21 02:43:21;;;;;;;1.30;1.20;;;;;;;;;;5029513;28;20112;-83
2023/12/21 02:45:47;;;;;;;1.30;1.02;;;;;;;;;;5029670;28;20467;-83
2023/12/21 02:48:13;;;;;;;3.95;1.70;;;;;;;;;;5029899;28;20013;-84
2023/12/21 02:50:39;;;;;;;1.13;1.02;;;;;;;;;;5029556;28;20038;-84
2023/12/21 02:53:05;;;;;;;2.83;1.63;;;;;;;;;;5029075;28;20764;-84
2023/12/21 02:55:31;;;;;;;3.70;1.63;;;;;;;;;;5029460;28;20021;-84
2023/12/21 02:57:57;;;;;;;4.90;2.55;;;;;;;;;;5029429;28;20031;-84
2023/12/21 03:00:23;;;;;;;3.75;1.98;;;;;;;;;;5028143;28;20025;-84
2023/12/21 03:02:49;;;;;;;6.20;1.90;;;;;;;;;;5032580;28;20021;-84
2023/12/21 03:05:15;;;;;;;1.98;1.63;;;;;;;;;;5038804;28;20064;-84
2023/12/21 03:07:41;;;;;;;0.95;0.93;;;;;;;;;;5041582;28;20111;-84
2023/12/21 03:10:07;;;;;;;3.08;1.33;;;;;;;;;;5048527;28;20120;-84
2023/12/21 03:12:33;;;;;;;3.47;1.73;;;;;;;;;;5049043;28;20021;-84
2023/12/21 03:14:59;;;;;;;9.15;1.85;;;;;;;;;;5048750;28;20082;-84
2023/12/21 03:17:25;;;;;;;5.50;2.35;;;;;;;;;;5045846;28;20032;-84
2023/12/21 03:19:51;;;;;;;3.22;1.58;;;;;;;;;;5048603;28;20033;-84
2023/12/21 03:22:17;;;;;;;2.33;1.33;;;;;;;;;;5046401;28;20113;-84
2023/12/21 03:24:45;;;;;;;1.50;1.30;;;;;;;;;;5048164;28;20100;-83
2023/12/21 03:27:12;;;;;;;1.70;1.25;;;;;;;;;;5049203;28;20057;-83
2023/12/21 03:29:38;;;;;;;10.60;2.35;;;;;;;;;;5051823;28;20060;-84
2023/12/21 03:32:04;;;;;;;2.20;1.00;;;;;;;;;;5047145;28;20096;-83
2023/12/21 03:34:30;;;;;;;1.33;1.05;;;;;;;;;;5032667;28;20147;-84
2023/12/21 03:36:56;;;;;;;3.63;1.85;;;;;;;;;;5036453;28;20055;-84
2023/12/21 03:39:22;;;;;;;2.17;1.33;;;;;;;;;;5040582;28;20034;-84
2023/12/21 03:41:48;;;;;;;6.32;1.27;;;;;;;;;;5032591;28;20026;-84
2023/12/21 03:44:14;;;;;;;2.78;1.40;;;;;;;;;;5043200;28;20033;-83
2023/12/21 03:46:40;;;;;;;6.93;1.58;;;;;;;;;;5039577;28;20055;-83
2023/12/21 03:49:06;;;;;;;3.78;1.73;;;;;;;;;;5041013;28;20040;-83
2023/12/21 03:51:32;;;;;;;2.03;1.27;;;;;;;;;;5049130;28;20495;-84
2023/12/21 03:53:58;;;;;;;3.00;1.48;;;;;;;;;;5040950;28;20065;-83
2023/12/21 03:56:24;;;;;;;1.63;1.15;;;;;;;;;;5048336;28;20500;-84
2023/12/21 03:58:50;;;;;;;6.95;1.55;;;;;;;;;;5049953;28;20120;-84
2023/12/21 04:01:24;;;;;;;2.55;1.27;;;6.00;99.90;;;;;;5051348;28;20053;-83
2023/12/21 04:03:50;;;;;;;4.63;1.52;;;;;;;;;;5040690;28;20059;-83
2023/12/21 04:06:16;;;;;;;3.92;3.03;;;;;;;;;;5032499;28;20067;-84
2023/12/21 04:08:42;;;;;;;2.08;1.38;;;;;;;;;;5032279;28;20041;-82
2023/12/21 04:11:08;;;;;;;4.85;2.00;;;;;;;;;;5033656;28;20108;-84
2023/12/21 04:13:34;;;;;;;3.30;1.83;;;5.60;99.90;;;;;;5032897;28;20063;-83
2023/12/21 04:15:59;;;;;;;1.20;1.10;;;;;;;;;;5033359;28;20025;-83
2023/12/21 04:18:25;;;;;;;5.43;1.33;;;;;;;;;;5032560;28;20028;-84
2023/12/21 04:20:52;;;;;;;1.52;1.42;;;;;;;;;;5033140;28;20410;-84
2023/12/21 04:23:17;;;;;;;1.10;1.00;;;;;;;;;;5032364;28;20087;-84
2023/12/21 04:25:44;;;;;;;5.82;1.23;;;;;;;;;;5031547;28;20502;-84
2023/12/21 04:28:10;;;;;;;3.65;1.70;;;;;;;;;;5031710;28;20021;-84
2023/12/21 04:30:36;;;;;;;2.65;1.38;;;;;;;;;;5031713;28;20042;-84
2023/12/21 04:33:02;;;;;;;2.22;1.50;;;;;;;;;;5031183;28;20071;-83
2023/12/21 04:35:27;;;;;;;2.35;1.27;;;5.60;99.90;;;;;;5031804;28;20032;-84
2023/12/21 04:37:53;;;;;;;3.08;1.85;;;;;;;;;;5039495;28;20029;-84
2023/12/21 04:40:19;;;;;;;4.75;2.33;;;;;;;;;;5048402;28;20025;-83
2023/12/21 04:42:51;;;;;;;2.97;1.42;;;;;;;;;;5048150;28;20486;-83
2023/12/21 04:45:18;;;;;;;2.10;1.63;;;;;;;;;;5046924;28;20406;-84
2023/12/21 04:47:44;;;;;;;1.55;1.45;;;;;;;;;;5047274;28;20025;-83
2023/12/21 04:50:10;;;;;;;3.67;1.42;;;;;;;;;;5047957;28;20033;-84
2023/12/21 04:52:36;;;;;;;1.42;0.80;;;;;;;;;;5045929;28;20128;-84
2023/12/21 04:55:03;;;;;;;1.85;1.10;;;;;;;;;;5033405;28;20103;-85
2023/12/21 04:57:29;;;;;;;1.42;1.10;;;;;;;;;;5018995;28;20042;-85
2023/12/21 04:59:55;;;;;;;1.27;1.15;;;;;;;;;;5030150;28;20350;-84
2023/12/21 05:02:22;;;;;;;2.78;2.05;;;;;;;;;;5018469;28;20040;-85
2023/12/21 05:04:48;;;;;;;1.38;1.25;;;;;;;;;;5034728;28;20045;-84
2023/12/21 05:07:14;;;;;;;1.80;1.58;;;;;;;;;;5033305;28;20057;-90
2023/12/21 05:09:40;;;;;;;2.10;1.25;;;;;;;;;;5044608;28;20025;-89
2023/12/21 05:12:06;;;;;;;2.03;1.70;;;;;;;;;;5023982;28;20076;-82
2023/12/21 05:14:32;;;;;;;2.45;1.50;;;;;;;;;;5031262;28;20117;-83
2023/12/21 05:16:58;;;;;;;2.72;1.50;;;;;;;;;;5034472;28;20101;-83
2023/12/21 05:19:24;;;;;;;0.80;0.80;;;;;;;;;;5035315;28;20033;-83
2023/12/21 05:21:50;;;;;;;4.45;1.75;;;;;;;;;;5039913;28;20037;-88
2023/12/21 05:24:16;;;;;;;2.90;1.30;;;;;;;;;;5050464;28;20025;-86
2023/12/21 05:26:42;;;;;;;5.20;2.30;;;;;;;;;;5049963;28;20025;-85
2023/12/21 05:29:08;;;;;;;4.72;1.70;;;;;;;;;;5046750;28;20024;-86
2023/12/21 05:31:37;;;;;;;3.15;1.75;;;;;;;;;;5050072;28;20033;-88
2023/12/21 05:34:04;;;;;;;3.60;2.00;;;5.70;99.90;;;;;;5048626;28;20854;-87
2023/12/21 05:36:30;;;;;;;3.40;2.17;;;;;;;;;;5044128;28;20120;-88
2023/12/21 05:38:56;;;;;;;3.55;1.05;;;;;;;;;;5054381;28;20030;-88
2023/12/21 05:41:22;;;;;;;3.10;1.30;;;;;;;;;;5048730;28;20044;-87
2023/12/21 05:43:48;;;;;;;1.30;1.20;;;;;;;;;;5043437;28;20383;-87
2023/12/21 05:46:14;;;;;;;3.00;1.50;;;;;;;;;;5048846;28;20036;-87
2023/12/21 05:48:40;;;;;;;4.53;2.08;;;;;;;;;;5040915;28;20024;-88
2023/12/21 05:51:06;;;;;;;2.33;1.60;;;;;;;;;;5044671;28;20037;-88
2023/12/21 05:53:33;;;;;;;4.32;1.88;;;;;;;;;;5049470;28;20090;-88
2023/12/21 05:55:58;;;;;;;8.40;3.92;;;6.40;99.90;;;;;;5047734;28;20032;-85
2023/12/21 05:58:24;;;;;;;5.18;2.08;;;;;;;;;;5047714;28;20025;-86
2023/12/21 06:00:50;;;;;;;2.17;1.55;;;;;;;;;;5049208;28;20715;-86
2023/12/21 06:03:16;;;;;;;4.82;1.60;;;;;;;;;;5048955;28;20025;-84
2023/12/21 06:05:43;;;;;;;3.15;2.08;;;;;;;;;;5047805;28;20021;-86
2023/12/21 06:08:08;;;;;;;6.45;2.53;;;5.90;99.90;;;;;;5052586;28;20102;-85
2023/12/21 06:10:34;;;;;;;7.18;3.17;;;6.30;99.90;;;;;;5055147;28;20572;-86
2023/12/21 06:13:00;;;;;;;8.75;4.13;;;;;;;;;;5041912;28;20528;-85
2023/12/21 06:15:26;;;;;;;7.57;4.45;;;;;;;;;;5041631;28;20150;-90
2023/12/21 06:17:52;;;;;;;6.57;2.60;;;;;;;;;;5048453;28;20025;-88
2023/12/21 06:20:18;;;;;;;6.90;2.28;;;5.70;99.90;;;;;;5037926;28;20042;-91
2023/12/21 06:22:44;;;;;;;9.07;2.90;;;;;;;;;;5048475;28;20017;-85
2023/12/21 06:25:11;;;;;;;25.67;7.53;;;5.80;99.90;;;;;;5066888;28;20036;-90
2023/12/21 06:27:37;;;;;;;4.80;2.47;;;5.70;99.90;;;;;;5048004;28;20025;-92
2023/12/21 06:30:04;;;;;;;2.50;1.55;;;;;;;;;;5039348;28;20394;-92
2023/12/21 06:32:30;;;;;;;12.00;2.63;;;6.10;99.90;;;;;;5046839;28;20401;-85
2023/12/21 06:34:56;;;;;;;3.20;2.00;;;;;;;;;;5061459;28;20099;-90
2023/12/21 06:37:22;;;;;;;9.02;2.22;;;5.70;99.90;;;;;;5042844;28;20059;-93
2023/12/21 06:39:48;;;;;;;12.48;2.67;;;;;;;;;;5039895;28;20027;-92
2023/12/21 06:42:14;;;;;;;2.40;1.77;;;;;;;;;;5045894;28;20022;-94
2023/12/21 06:44:40;;;;;;;6.05;2.50;;;;;;;;;;5033178;28;20031;-93
2023/12/21 06:47:06;;;;;;;6.22;3.33;;;;;;;;;;5030026;28;20021;-89
2023/12/21 06:49:32;;;;;;;7.15;3.10;;;;;;;;;;5042902;28;20056;-88
2023/12/21 06:51:57;;;;;;;6.00;2.75;;;5.80;99.90;;;;;;5043012;28;20532;-87
2023/12/21 06:54:24;;;;;;;5.75;3.05;;;;;;;;;;5046873;28;20077;-87
2023/12/21 06:56:50;;;;;;;10.77;3.65;;;;;;;;;;5048000;28;20044;-87
2023/12/21 06:59:16;;;;;;;8.38;3.30;;;;;;;;;;5047132;28;20033;-82
2023/12/21 07:01:42;;;;;;;18.17;4.65;;;;;;;;;;5051372;28;20059;-82
2023/12/21 07:04:08;;;;;;;11.63;2.85;;;;;;;;;;5049723;28;20057;-83
2023/12/21 07:06:34;;;;;;;5.20;2.10;;;;;;;;;;5051232;28;20028;-83
2023/12/21 07:09:00;;;;;;;11.90;4.63;;;5.80;99.90;;;;;;5051404;28;20029;-82
2023/12/21 07:11:26;;;;;;;13.05;4.45;;;;;;;;;;5051546;28;20623;-83
2023/12/21 07:13:52;;;;;;;16.50;6.15;;;;;;;;;;5050592;28;20036;-83
2023/12/21 07:16:18;;;;;;;15.98;6.68;;;5.70;99.90;;;;;;5051171;28;20825;-82
2023/12/21 07:18:44;;;;;;;10.38;6.80;;;5.60;99.90;;;;;;5051191;28;20112;-81
2023/12/21 07:21:10;;;;;;;11.38;5.57;;;;;;;;;;5051497;28;20193;-80
2023/12/21 07:23:36;;;;;;;9.55;5.55;;;;;;;;;;5051748;28;20151;-82
2023/12/21 07:26:03;;;;;;;9.32;4.50;;;;;;;;;;5040715;28;20032;-79
2023/12/21 07:28:30;;;;;;;8.53;4.90;;;;;;;;;;5050289;28;20359;-80
2023/12/21 07:30:56;;;;;;;15.63;5.03;;;;;;;;;;5051465;28;20033;-79
2023/12/21 07:33:22;;;;;;;17.73;4.82;;;;;;;;;;5050919;28;20029;-79
2023/12/21 07:35:48;;;;;;;12.27;4.07;;;;;;;;;;5058773;28;20028;-82
2023/12/21 07:38:14;;;;;;;6.65;3.42;;;;;;;;;;5055696;28;20039;-82
2023/12/21 07:40:40;;;;;;;4.60;2.78;;;;;;;;;;5051479;28;20013;-84
2023/12/21 07:43:06;;;;;;;7.63;2.60;;;;;;;;;;5043654;28;20051;-84
2023/12/21 07:45:32;;;;;;;6.28;3.58;;;;;;;;;;5049182;28;20021;-83
2023/12/21 07:47:58;;;;;;;5.78;4.15;;;;;;;;;;5050472;28;20246;-80
2023/12/21 07:50:25;;;;;;;3.38;2.60;;;;;;;;;;5050798;28;20037;-82
2023/12/21 07:52:56;;;;;;;6.22;3.85;;;;;;;;;;5062901;28;20032;-81
2023/12/21 07:55:24;;;;;;;10.93;4.40;;;6.40;99.90;;;;;;5051559;28;20086;-80
2023/12/21 07:57:51;;;;;;;13.88;3.35;;;;;;;;;;5049673;28;20044;-83
2023/12/21 08:00:17;;;;;;;24.08;5.78;;;;;;;;;;5050316;28;20036;-82
2023/12/21 08:02:46;;;;;;;11.43;6.03;;;;;;;;;;5050662;28;20021;-79
2023/12/21 08:05:12;;;;;;;14.82;5.57;;;6.50;99.90;;;;;;5057715;28;20489;-80
2023/12/21 08:07:38;;;;;;;13.05;4.30;;;;;;;;;;5050447;28;20116;-80
2023/12/21 08:10:07;;;;;;;9.77;4.18;;;6.70;99.90;;;;;;5050740;28;20541;-82
2023/12/21 08:12:35;;;;;;;5.50;2.65;;;;;;;;;;5048984;28;20051;-83
2023/12/21 08:15:01;;;;;;;4.90;2.92;;;6.70;99.90;;;;;;5050195;28;20543;-84
2023/12/21 08:17:27;;;;;;;17.52;3.50;;;;;;;;;;5052490;28;20028;-84
2023/12/21 08:19:54;;;;;;;12.25;3.55;;;;;;;;;;5049860;28;20045;-84
2023/12/21 08:22:22;;;;;;;12.57;6.47;;;;;;;;;;5050077;28;20021;-85
2023/12/21 08:24:48;;;;;;;8.73;4.53;;;;;;;;;;5050083;28;20043;-85
2023/12/21 08:27:14;;;;;;;10.50;4.55;;;;;;;;;;5045156;28;20045;-83
2023/12/21 08:29:40;;;;;;;7.82;4.72;;;;;;;;;;5041640;28;20070;-84
2023/12/21 08:32:06;;;;;;;8.38;3.10;;;;;;;;;;5048851;28;20041;-84
2023/12/21 08:34:33;;;;;;;6.57;3.60;;;;;;;;;;5049613;28;20558;-81
2023/12/21 08:36:59;;;;;;;6.45;3.25;;;;;;;;;;5049722;28;20025;-84
2023/12/21 08:39:26;;;;;;;12.68;6.82;;;;;;;;;;5049799;28;20029;-82
2023/12/21 08:41:52;;;;;;;8.00;5.10;;;;;;;;;;5048939;28;20564;-85
2023/12/21 08:44:18;;;;;;;6.93;3.75;;;;;;;;;;5049899;28;20029;-84
2023/12/21 08:46:44;;;;;;;10.95;3.15;;;;;;;;;;5049504;28;20024;-83
2023/12/21 08:49:15;;;;;;;3.67;3.03;;;7.20;99.90;;;;;;5049471;28;20029;-83
2023/12/21 08:51:41;;;;;;;6.78;4.40;;;;;;;;;;5049434;28;20036;-82
2023/12/21 08:54:07;;;;;;;14.65;5.35;;;7.40;99.90;;;;;;5049758;28;20509;-85
2023/12/21 08:56:33;;;;;;;12.95;7.15;;;;;;;;;;5034538;28;20022;-85
2023/12/21 08:58:59;;;;;;;22.48;10.20;;;;;;;;;;5050343;28;20470;-85
2023/12/21 09:01:25;;;;;;;34.10;11.27;;;;;;;;;;5049190;28;20545;-83
2023/12/21 09:03:50;;;;;;;24.27;12.43;;;7.90;99.90;;;;;;5049848;28;20029;-77
2023/12/21 09:06:16;;;;;;;27.83;11.50;;;;;;;;;;5051229;28;20063;-93
2023/12/21 09:08:42;;;;;;;22.05;10.30;;;;;;;;;;5055330;28;20075;-92
2023/12/21 09:11:08;;;;;;;26.25;9.40;;;8.00;99.90;;;;;;5049435;28;20054;-87
2023/12/21 09:13:34;;;;;;;9.75;5.60;;;;;;;;;;5048331;28;20024;-85
2023/12/21 09:16:00;;;;;;;10.88;7.35;;;;;;;;;;5050074;28;20021;-94
2023/12/21 09:18:26;;;;;;;9.68;5.10;;;;;;;;;;5049736;28;20024;-87
2023/12/21 09:20:52;;;;;;;15.32;7.05;;;;;;;;;;5051135;28;20673;-85
2023/12/21 09:23:18;;;;;;;8.63;4.07;;;;;;;;;;5050617;28;20032;-94
2023/12/21 09:25:44;;;;;;;8.63;4.03;;;;;;;;;;5057537;28;20141;-95
2023/12/21 09:28:09;;;;;;;9.70;3.33;;;8.50;99.90;;;;;;5050823;28;20025;-94
2023/12/21 09:30:36;;;;;;;8.23;4.22;;;;;;;;;;5060642;28;20060;-95
2023/12/21 09:33:03;;;;;;;7.23;4.13;;;;;;;;;;5043143;28;20036;-91
2023/12/21 09:35:29;;;;;;;7.93;3.17;;;;;;;;;;5050215;28;20032;-89
2023/12/21 09:37:55;;;;;;;3.58;1.90;;;;;;;;;;5055089;28;20397;-88
2023/12/21 09:40:24;;;;;;;1.92;1.35;;;;;;;;;;5051736;28;20025;-88
2023/12/21 09:42:51;;;;;;;18.42;2.70;;;;;;;;;;5050493;28;20120;-88
2023/12/21 09:45:18;;;;;;;3.95;1.95;;;8.70;99.90;;;;;;5056751;28;20088;-88
2023/12/21 09:47:45;;;;;;;6.00;2.20;;;8.70;99.90;;;;;;5044464;28;20522;-88
2023/12/21 09:50:12;;;;;;;2.33;1.53;;;8.70;99.90;;;;;;5045388;28;20057;-86
2023/12/21 09:52:39;;;;;;;3.90;2.10;;;9.20;99.90;;;;;;5048515;28;20029;-85
2023/12/21 09:55:08;;;;;;;5.88;1.50;;;8.60;99.90;;;;;;5048057;28;20044;-83
2023/12/21 09:57:37;;;;;;;4.95;2.90;;;8.80;99.90;;;;;;5045081;28;20029;-93
2023/12/21 10:00:04;;;;;;;9.18;2.42;;;9.20;99.90;;;;;;5061186;28;20123;-92
2023/12/21 10:02:31;;;;;;;2.33;1.50;;;;;;;;;;5073578;28;20028;-91
2023/12/21 10:04:58;;;;;;;2.90;2.00;;;9.00;99.90;;;;;;5054683;28;20120;-93
2023/12/21 10:07:25;;;;;;;4.93;1.85;;;;;;;;;;5064074;28;20435;-89
2023/12/21 10:09:51;;;;;;;;;;;8.80;99.90;;;;;;5072271;28;20032;-87
2023/12/21 10:12:17;;;;;;;1.40;1.30;;;;;;;;;;5044605;28;20007;-85
2023/12/21 10:14:43;;;;;;;2.42;1.25;;;9.00;99.90;;;;;;5061273;28;20028;-84
2023/12/21 10:17:10;;;;;;;4.80;1.25;;;;;;;;;;5048396;28;20060;-85
2023/12/21 10:19:44;;;;;;;3.43;2.17;;;9.30;99.90;;;;;;5049134;28;20091;-84
2023/12/21 10:22:10;;;;;;;4.65;2.58;;;;;;;;;;5048188;28;20029;-85
2023/12/21 10:24:37;;;;;;;5.95;3.15;;;10.20;99.70;;;;;;5050715;28;20029;-81
2023/12/21 10:27:03;;;;;;;5.03;3.03;;;;;;;;;;5047961;28;20084;-86
2023/12/21 10:29:29;;;;;;;4.63;2.53;;;;;;;;;;5048398;28;20053;-84
2023/12/21 10:31:56;;;;;;;4.05;1.95;;;;;;;;;;5046340;28;20037;-86
2023/12/21 10:34:22;;;;;;;5.80;2.38;;;11.30;90.30;;;;;;5048692;28;20044;-84
2023/12/21 10:36:49;;;;;;;9.45;2.65;;;;;;;;;;5052186;28;20047;-85
2023/12/21 10:39:15;;;;;;;4.35;1.35;;;10.60;93.90;;;;;;5051461;28;20017;-84
2023/12/21 10:41:44;;;;;;;3.72;1.55;;;10.50;99.90;;;;;;5051654;28;20033;-83
2023/12/21 10:44:12;;;;;;;1.23;1.13;;;10.40;96.60;;;;;;5052260;28;20107;-84
2023/12/21 10:46:38;;;;;;;1.05;0.98;;;8.80;96.70;;;;;;5051578;28;20025;-85
2023/12/21 10:49:06;;;;;;;3.05;1.00;;;;;;;;;;5052056;28;20048;-84
2023/12/21 10:51:37;;;;;;;1.92;1.52;;;9.90;98.50;;;;;;5053970;28;20036;-84
2023/12/21 10:54:08;;;;;;;2.60;1.75;;;9.80;99.50;;;;;;5060354;28;20130;-85
2023/12/21 10:56:35;;;;;;;2.60;1.58;;;9.60;99.80;;;;;;5055734;28;20089;-84
2023/12/21 10:59:02;;;;;;;1.45;1.35;;;9.50;99.90;;;;;;5050231;28;20036;-85
2023/12/21 11:01:28;;;;;;;5.00;1.35;;;;;;;;;;5051444;28;20029;-84
2023/12/21 11:03:54;;;;;;;1.83;1.17;;;;;;;;;;5052026;28;20032;-84
2023/12/21 11:06:21;;;;;;;3.25;1.23;;;9.50;99.90;;;;;;5051082;28;20135;-84
2023/12/21 11:08:48;;;;;;;1.23;1.02;;;9.60;99.90;;;;;;5052327;28;20115;-84
2023/12/21 11:11:16;;;;;;;3.03;1.77;;;9.70;99.90;;;;;;5045672;28;20046;-84
2023/12/21 11:13:45;;;;;;;3.17;1.58;;;;;;;;;;5045094;28;20436;-85
2023/12/21 11:16:14;;;;;;;1.88;1.23;;;9.70;99.90;;;;;;5043259;28;20025;-84
2023/12/21 11:18:43;;;;;;;1.30;1.00;;;9.80;99.90;;;;;;5051159;28;20029;-84
2023/12/21 11:21:10;;;;;;;3.08;1.48;;;9.80;99.90;;;;;;5049430;28;20501;-85
2023/12/21 11:23:45;;;;;;;1.42;0.73;;;9.70;99.90;;;;;;5058117;28;20382;-84
2023/12/21 11:26:11;;;;;;;2.97;1.73;;;;;;;;;;5050968;28;20078;-84
2023/12/21 11:28:38;;;;;;;4.45;2.35;;;;;;;;;;5050831;28;20032;-84
2023/12/21 11:31:15;;;;;;;3.55;2.10;;;9.60;99.90;;;;;;5050713;28;20516;-83
2023/12/21 11:33:42;;;;;;;1.42;1.00;;;;;;;;;;5050206;28;20017;-84
2023/12/21 11:36:10;;;;;;;17.23;7.00;;;9.40;99.90;;;;;;5050633;28;20024;-84
2023/12/21 11:38:51;;;;;;;21.23;8.18;;;9.40;99.90;;;;;;5051654;28;20382;-83
2023/12/21 11:41:18;;;;;;;2.58;1.75;;;;;;;;;;5043679;28;20482;-83
2023/12/21 11:44:16;;;;;;;3.65;2.33;;;9.70;99.90;;;;;;5051795;28;20025;-83
2023/12/21 11:46:42;;;;;;;4.32;2.75;;;9.60;99.90;;;;;;5007054;28;20062;-83
2023/12/21 11:49:26;;;;;;;1.65;1.23;;;9.70;99.90;;;;;;5005144;28;20474;-82
2023/12/21 11:51:52;;;;;;;1.63;1.23;;;9.80;99.90;;;;;;5007806;28;20041;-81
2023/12/21 11:54:19;;;;;;;1.45;1.35;;;9.70;99.90;;;;;;5007711;28;20628;-83
2023/12/21 11:56:45;;;;;;;1.23;0.97;;;;;;;;;;5006817;28;20473;-89
2023/12/21 11:59:14;;;;;;;1.83;1.27;;;9.80;99.90;;;;;;4994922;28;20122;-90
2023/12/21 12:01:40;;;;;;;8.55;2.70;;;;;;;;;;5011295;28;20061;-85
2023/12/21 12:04:06;;;;;;;4.68;2.38;;;;;;;;;;5009728;28;20034;-89
2023/12/21 12:06:32;;;;;;;10.15;4.72;;;10.10;99.90;;;;;;5010965;28;20030;-86
2023/12/21 12:08:58;;;;;;;12.80;5.60;;;;;;;;;;5010329;28;20038;-86
2023/12/21 12:11:25;;;;;;;15.40;5.10;;;10.30;99.80;;;;;;5022429;28;20038;-88
2023/12/21 12:13:51;;;;;;;5.53;2.83;;;;;;;;;;5009594;28;20037;-87
2023/12/21 12:16:17;;;;;;;9.68;4.60;;;10.10;98.90;;;;;;5008232;28;20125;-87
2023/12/21 12:18:43;;;;;;;3.35;2.58;;;;;;;;;;5008121;28;20029;-86
2023/12/21 12:21:10;;;;;;;25.10;7.80;;;;;;;;;;5014335;28;20129;-94
2023/12/21 12:23:36;;;;;;;5.93;3.17;;;;;;;;;;5055370;28;20390;-88
2023/12/21 12:26:02;;;;;;;7.45;3.20;;;9.90;99.80;;;;;;5052183;28;20029;-88
2023/12/21 12:28:28;;;;;;;3.10;2.10;;;;;;;;;;5064084;28;20035;-88
2023/12/21 12:30:55;;;;;;;2.15;1.40;;;;;;;;;;5052353;28;20414;-83
2023/12/21 12:33:21;;;;;;;4.97;2.20;;;10.00;99.90;;;;;;5044109;28;20144;-84
2023/12/21 12:35:50;;;;;;;3.90;1.60;;;9.90;99.90;;;;;;5055968;28;20550;-86
2023/12/21 12:38:19;;;;;;;1.30;1.15;;;;;;;;;;5055427;28;20090;-88
2023/12/21 12:40:48;;;;;;;2.10;1.73;;;10.00;99.90;;;;;;5053452;28;20418;-89
2023/12/21 12:43:14;;;;;;;2.28;1.83;;;;;;;;;;5052173;28;20090;-89
2023/12/21 12:45:41;;;;;;;2.83;1.60;;;10.00;99.90;;;;;;5050548;28;20021;-86
2023/12/21 12:48:10;;;;;;;5.78;1.95;;;10.00;99.90;;;;;;5050467;28;20033;-88
2023/12/21 12:50:36;;;;;;;6.55;2.03;;;;;;;;;;5050827;28;20072;-86
2023/12/21 12:53:03;;;;;;;6.13;2.67;;;;;;;;;;5052257;28;20464;-87
2023/12/21 12:55:29;;;;;;;5.75;2.58;;;;;;;;;;5059109;28;20040;-87
2023/12/21 12:57:57;;;;;;;3.17;2.38;;;10.10;99.90;;;;;;5049210;28;20557;-86
2023/12/21 13:00:23;;;;;;;6.72;2.10;;;;;;;;;;5050278;28;20037;-86
2023/12/21 13:02:49;;;;;;;3.95;2.25;;;;;;;;;;5039400;28;20071;-82
2023/12/21 13:05:15;;;;;;;4.03;1.15;;;;;;;;;;5045156;28;20040;-93
2023/12/21 13:07:43;;;;;;;0.80;0.80;;;;;;;;;;5047517;28;20052;-93
2023/12/21 13:10:11;;;;;;;3.15;1.67;;;10.20;99.10;;;;;;5037941;28;20021;-88
2023/12/21 13:12:38;;;;;;;1.92;1.48;;;;;;;;;;5046421;28;20044;-90
2023/12/21 13:15:06;;;;;;;3.87;2.10;;;10.40;99.20;;;;;;5050281;28;20032;-87
2023/12/21 13:17:32;;;;;;;2.90;1.70;;;;;;;;;;5049462;28;20013;-85
2023/12/21 13:19:58;;;;;;;1.73;1.45;;;;;;;;;;5047742;28;20035;-82
2023/12/21 13:22:24;;;;;;;7.03;2.45;;;;;;;;;;5048579;28;20035;-84
2023/12/21 13:24:51;;;;;;;7.22;3.15;;;;;;;;;;5048883;28;20476;-82
2023/12/21 13:27:17;;;;;;;10.18;5.55;;;;;;;;;;5047244;28;20021;-84
2023/12/21 13:29:43;;;;;;;2.42;2.05;;;;;;;;;;5047829;28;20031;-89
2023/12/21 13:32:09;;;;;;;2.72;1.65;;;;;;;;;;5058545;28;20025;-84
2023/12/21 13:34:36;;;;;;;7.75;3.28;;;;;;;;;;5052278;28;20560;-82
2023/12/21 13:37:02;;;;;;;;;;;10.10;99.90;;;;;;5052581;28;20108;-88
2023/12/21 13:39:28;;;;;;;12.60;5.10;;;;;;;;;;5049795;28;19911;-91
2023/12/21 13:41:55;;;;;;;6.25;3.50;;;;;;;;;;5049033;28;20064;-84
2023/12/21 13:44:22;;;;;;;4.03;2.03;;;;;;;;;;5037945;28;20026;-85
2023/12/21 13:46:48;;;;;;;5.13;1.70;;;;;;;;;;5047350;28;20036;-88
2023/12/21 13:49:14;;;;;;;4.10;1.88;;;;;;;;;;5040508;28;20060;-88
2023/12/21 13:51:40;;;;;;;6.95;3.05;;;;;;;;;;5046823;28;20535;-86
2023/12/21 13:54:06;;;;;;;5.18;2.42;;;;;;;;;;5042680;28;20636;-86
2023/12/21 13:56:32;;;;;;;6.97;3.20;;;10.00;99.90;;;;;;5047730;28;20120;-85
2023/12/21 13:58:58;;;;;;;2.70;2.28;;;;;;;;;;5048895;28;20114;-86
2023/12/21 14:01:25;;;;;;;7.40;2.30;;;;;;;;;;5048717;28;20083;-87
2023/12/21 14:03:51;;;;;;;2.53;1.88;;;;;;;;;;5038200;28;20490;-89
2023/12/21 14:06:19;;;;;;;5.78;2.40;;;10.30;99.90;;;;;;5049399;28;20110;-91
2023/12/21 14:08:45;;;;;;;7.65;2.78;;;;;;;;;;5058763;28;20082;-92